Time;durP1;ratioP1;P1;durP2;ratioP2;P2;SDS_P1;SDS_P2;PMS_P1;PMS_P2;Temp;Humidity;BMP_temperature;BMP_pressure;BME280_temperature;BME280_humidity;BME280_pressure;Samples;Min_cycle;Max_cycle;Signal;HPM_P1;HPM_P2
2021/09/29 00:00:28;;;;;;;11.07;7.75;;;;;;;11.02;75.24;100731.50;8750750;33;20395;-77
2021/09/29 00:05:33;;;;;;;12.43;7.80;;;;;;;11.04;75.04;100729.56;8775724;33;20414;-76
2021/09/29 00:10:43;;;;;;;9.45;7.15;;;;;;;11.04;74.98;100722.34;8776177;33;20242;-77
2021/09/29 00:15:46;;;;;;;16.35;7.72;;;;;;;11.03;74.78;100723.34;8775089;33;20183;-76
2021/09/29 00:20:51;;;;;;;12.70;7.28;;;;;;;11.07;74.75;100710.50;8773987;33;20183;-77
2021/09/29 00:25:54;;;;;;;10.80;8.02;;;;;;;11.10;74.69;100707.56;8773354;33;20225;-76
2021/09/29 00:31:03;;;;;;;11.85;8.02;;;;;;;11.10;74.34;100698.66;8775765;33;20175;-76
2021/09/29 00:36:07;;;;;;;12.57;7.10;;;;;;;11.11;74.51;100692.31;8774976;33;20161;-76
2021/09/29 00:41:10;;;;;;;9.77;7.15;;;;;;;11.11;74.61;100684.22;8775773;33;20236;-76
2021/09/29 00:46:13;;;;;;;11.75;7.82;;;;;;;11.11;74.55;100676.16;8773092;33;20638;-77
2021/09/29 00:51:18;;;;;;;11.77;7.70;;;;;;;11.04;74.59;100671.28;8774877;33;20151;-76
2021/09/29 00:56:22;;;;;;;12.20;8.18;;;;;;;11.02;74.58;100672.38;8774365;33;21888;-76
2021/09/29 01:01:25;;;;;;;11.02;7.18;;;;;;;11.02;74.68;100669.69;8774399;33;20255;-76
2021/09/29 01:06:38;;;;;;;15.32;8.32;;;;;;;11.00;74.75;100658.22;8773876;33;20402;-77
2021/09/29 01:11:51;;;;;;;13.35;7.85;;;;;;;10.98;74.92;100647.56;8774096;33;20623;-77
2021/09/29 01:16:58;;;;;;;11.80;8.05;;;;;;;10.91;74.76;100650.88;8774122;33;20208;-77
2021/09/29 01:22:13;;;;;;;11.32;7.28;;;;;;;10.87;74.86;100644.03;8774520;33;21044;-76
2021/09/29 01:27:18;;;;;;;13.38;7.70;;;;;;;10.86;74.72;100636.94;8773876;33;20159;-77
2021/09/29 01:32:23;;;;;;;15.88;7.22;;;;;;;10.81;75.16;100630.09;8772744;33;20186;-77
2021/09/29 01:37:26;;;;;;;9.20;7.28;;;;;;;10.81;75.18;100619.34;8773308;33;20182;-76
2021/09/29 01:42:30;;;;;;;11.95;7.63;;;;;;;10.82;74.88;100617.50;8775442;33;20864;-77
2021/09/29 01:47:33;;;;;;;14.20;7.28;;;;;;;10.92;74.59;100615.81;8778459;33;21467;-77
2021/09/29 01:52:43;;;;;;;10.82;7.32;;;;;;;10.90;74.42;100607.00;8779190;33;20182;-76
2021/09/29 01:57:49;;;;;;;9.98;6.97;;;;;;;10.93;74.39;100589.78;8781005;33;20719;-76
2021/09/29 02:02:56;;;;;;;10.00;8.00;;;;;;;10.94;74.11;100583.44;8780883;33;20144;-76
2021/09/29 02:08:01;;;;;;;13.18;8.10;;;;;;;11.03;73.92;100577.34;8778928;33;20182;-77
2021/09/29 02:13:06;;;;;;;16.60;7.95;;;;;;;11.06;73.98;100571.72;8780060;33;20154;-76
2021/09/29 02:18:09;;;;;;;14.57;8.20;;;;;;;11.01;73.96;100571.22;8779376;33;20186;-76
2021/09/29 02:23:12;;;;;;;14.13;7.95;;;;;;;10.98;74.04;100566.94;8778034;33;20186;-76
2021/09/29 02:28:17;;;;;;;10.15;6.95;;;;;;;11.00;73.90;100570.38;8778314;33;20190;-76
2021/09/29 02:33:20;;;;;;;10.98;7.20;;;;;;;10.96;73.92;100568.03;8778167;33;20904;-76
2021/09/29 02:38:22;;;;;;;13.77;7.97;;;;;;;10.96;73.60;100568.88;8778186;33;20588;-77
2021/09/29 02:43:27;;;;;;;11.30;7.35;;;;;;;10.88;74.04;100559.72;8777611;33;20168;-76
2021/09/29 02:48:30;;;;;;;9.85;7.68;;;;;;;10.89;74.17;100562.31;8778233;33;20239;-77
2021/09/29 02:53:33;;;;;;;12.55;7.70;;;;;;;10.75;74.48;100552.66;8776635;33;20194;-77
2021/09/29 02:58:37;;;;;;;12.13;7.50;;;;;;;10.85;74.12;100547.38;8776731;33;20233;-76
2021/09/29 03:03:40;;;;;;;12.20;7.75;;;;;;;10.96;73.94;100541.16;8775687;33;20183;-76
2021/09/29 03:08:43;;;;;;;10.95;7.70;;;;;;;10.96;73.85;100542.00;8777339;33;20159;-77
2021/09/29 03:13:48;;;;;;;12.48;7.78;;;;;;;10.91;73.87;100530.78;8777633;33;20183;-76
2021/09/29 03:18:51;;;;;;;12.98;7.57;;;;;;;10.92;73.94;100535.19;8780845;33;21506;-76
2021/09/29 03:23:54;;;;;;;18.40;8.07;;;;;;;10.89;73.94;100531.88;8775311;33;20187;-77
2021/09/29 03:28:58;;;;;;;10.77;7.13;;;;;;;10.84;73.70;100535.78;8776996;33;20244;-76
2021/09/29 03:34:01;;;;;;;11.38;7.32;;;;;;;10.82;74.14;100536.88;8776682;33;20520;-76
2021/09/29 03:39:05;;;;;;;12.45;7.40;;;;;;;10.75;74.20;100530.28;8776878;33;20187;-77
2021/09/29 03:44:09;;;;;;;13.05;7.82;;;;;;;10.69;74.36;100517.34;8777191;33;20228;-77
2021/09/29 03:49:12;;;;;;;11.02;7.85;;;;;;;10.64;74.68;100522.22;8776855;33;20187;-76
2021/09/29 03:54:15;;;;;;;14.05;7.90;;;;;;;10.68;74.52;100529.09;8776781;33;20213;-77
2021/09/29 03:59:19;;;;;;;12.02;8.20;;;;;;;10.74;74.41;100512.47;8775428;33;20821;-77
2021/09/29 04:04:22;;;;;;;11.13;7.38;;;;;;;10.79;74.05;100504.91;8775926;33;20258;-76
2021/09/29 04:09:25;;;;;;;12.52;8.43;;;;;;;10.85;73.85;100499.03;8776584;33;20639;-77
2021/09/29 04:14:30;;;;;;;15.57;8.60;;;;;;;10.80;73.76;100501.22;8774389;33;20140;-77
2021/09/29 04:19:32;;;;;;;13.50;8.85;;;;;;;10.75;74.04;100496.22;8775589;33;20565;-76
2021/09/29 04:24:35;;;;;;;11.75;8.18;;;;;;;10.77;73.94;100501.47;8775434;33;20323;-77
2021/09/29 04:29:41;;;;;;;13.38;8.40;;;;;;;10.74;74.26;100496.34;8775473;33;20158;-77
2021/09/29 04:34:44;;;;;;;11.88;7.85;;;;;;;10.68;74.32;100497.69;8774938;33;20183;-77
2021/09/29 04:39:47;;;;;;;12.10;8.38;;;;;;;10.65;74.33;100497.09;8776082;33;20182;-77
2021/09/29 04:44:51;;;;;;;12.02;8.85;;;;;;;10.60;74.65;100494.75;8774867;33;20236;-76
2021/09/29 04:49:54;;;;;;;14.57;8.55;;;;;;;10.57;74.64;100481.56;8775105;33;20191;-77
2021/09/29 04:54:57;;;;;;;14.30;8.45;;;;;;;10.59;74.56;100490.38;8774387;33;20187;-76
2021/09/29 05:00:01;;;;;;;10.07;7.57;;;;;;;10.55;75.03;100484.38;8775069;33;20187;-77
2021/09/29 05:05:05;;;;;;;12.98;8.38;;;;;;;10.45;74.92;100480.72;8774756;33;21200;-76
2021/09/29 05:10:17;;;;;;;11.82;7.90;;;;;;;10.48;74.90;100474.25;8775279;33;20187;-77
2021/09/29 05:15:21;;;;;;;12.10;7.40;;;;;;;10.41;75.24;100473.03;8774678;33;20213;-77
2021/09/29 05:20:25;;;;;;;11.65;7.20;;;;;;;10.38;75.39;100468.75;8780215;33;20809;-77
2021/09/29 05:25:28;;;;;;;12.20;8.05;;;;;;;10.35;75.55;100475.22;8779393;33;20523;-76
2021/09/29 05:30:32;;;;;;;13.25;8.40;;;;;;;10.37;75.53;100461.69;8778842;33;20182;-77
2021/09/29 05:35:35;;;;;;;13.85;8.68;;;;;;;10.36;75.69;100463.47;8779014;33;20322;-77
2021/09/29 05:40:38;;;;;;;12.73;8.07;;;;;;;10.41;75.59;100459.59;8779807;33;21210;-76
2021/09/29 05:45:43;;;;;;;10.75;7.88;;;;;;;10.42;75.33;100456.78;8778583;33;20333;-76
2021/09/29 05:50:46;;;;;;;18.80;8.38;;;;;;;10.49;75.28;100451.78;8778862;33;20174;-76
2021/09/29 05:55:49;;;;;;;14.43;8.13;;;;;;;10.51;75.12;100450.69;8778339;33;20191;-77
2021/09/29 06:00:54;;;;;;;11.90;7.43;;;;;;;10.53;74.94;100450.53;8779063;33;20143;-76
2021/09/29 06:05:57;;;;;;;13.77;8.02;;;;;;;10.67;74.77;100431.50;8778667;33;20209;-77
2021/09/29 06:11:01;;;;;;;10.25;7.38;;;;;;;10.75;74.50;100390.56;8779418;33;20167;-75
2021/09/29 06:16:08;;;;;;;12.93;8.27;;;;;;;10.67;74.59;100403.78;8778613;33;20549;-76
2021/09/29 06:21:11;;;;;;;15.60;8.15;;;;;;;10.66;74.72;100402.06;8776791;33;20252;-75
2021/09/29 06:26:14;;;;;;;14.95;8.73;;;;;;;10.66;74.92;100408.28;8776806;33;20182;-75
2021/09/29 06:31:18;;;;;;;13.55;8.13;;;;;;;10.69;74.87;100409.88;8776170;33;20240;-76
2021/09/29 06:36:21;;;;;;;13.00;8.23;;;;;;;10.73;74.80;100400.59;8777337;33;21111;-76
2021/09/29 06:41:24;;;;;;;13.02;8.15;;;;;;;10.83;74.46;100405.09;8777707;33;20147;-75
2021/09/29 06:46:28;;;;;;;15.05;9.23;;;;;;;10.93;73.94;100407.03;8777189;33;20463;-76
2021/09/29 06:51:32;;;;;;;14.90;8.85;;;;;;;11.40;72.91;100396.88;8790173;32;20195;-75
2021/09/29 06:56:35;;;;;;;17.80;9.02;;;;;;;12.15;70.95;100396.66;8794669;32;20277;-74
2021/09/29 07:01:39;;;;;;;14.48;7.70;;;;;;;12.27;69.83;100402.78;8776609;32;20197;-74
2021/09/29 07:06:42;;;;;;;11.90;7.65;;;;;;;12.28;69.75;100396.44;8777330;32;20174;-74
2021/09/29 07:11:45;;;;;;;12.10;7.65;;;;;;;12.27;69.22;100401.94;8777569;33;20151;-73
2021/09/29 07:16:51;;;;;;;14.63;7.78;;;;;;;12.13;70.17;100413.94;8777052;33;20247;-73
2021/09/29 07:21:54;;;;;;;13.80;8.32;;;;;;;12.23;70.02;100405.88;8777596;33;20142;-75
2021/09/29 07:26:57;;;;;;;13.02;7.97;;;;;;;12.15;70.30;100403.88;8777135;33;21249;-75
2021/09/29 07:32:01;;;;;;;13.85;7.20;;;;;;;12.33;70.63;100407.66;8777396;33;20179;-75
2021/09/29 07:37:05;;;;;;;11.65;7.30;;;;;;;12.84;69.17;100397.78;8775942;33;20175;-75
2021/09/29 07:42:08;;;;;;;12.30;7.43;;;;;;;13.64;67.01;100395.84;8776129;33;20191;-75
2021/09/29 07:47:12;;;;;;;10.68;6.97;;;;;;;14.22;64.65;100393.00;8776408;33;20321;-75
2021/09/29 07:52:16;;;;;;;14.02;7.78;;;;;;;14.61;63.97;100395.56;8776412;33;20183;-75
2021/09/29 07:57:20;;;;;;;12.88;7.68;;;;;;;14.64;63.32;100392.53;8775897;33;20695;-75
2021/09/29 08:02:24;;;;;;;14.57;8.23;;;;;;;15.20;62.03;100385.22;8751498;33;20195;-75
2021/09/29 08:07:27;;;;;;;10.02;7.25;;;;;;;14.98;62.83;100383.81;8776116;33;20187;-76
2021/09/29 08:12:30;;;;;;;9.63;6.07;;;;;;;14.92;63.24;100376.28;8776352;33;20427;-75
2021/09/29 08:17:34;;;;;;;7.65;4.68;;;;;;;14.96;61.68;100369.59;8759560;33;20417;-75
2021/09/29 08:22:40;;;;;;;6.07;3.83;;;;;;;14.58;60.73;100358.84;8731079;33;20667;-75
2021/09/29 08:27:55;;;;;;;6.57;3.35;;;;;;;15.56;57.12;100352.75;8774167;33;20616;-76
2021/09/29 08:33:06;;;;;;;4.80;2.88;;;;;;;16.34;56.03;100352.72;8767995;33;20190;-77
2021/09/29 08:38:11;;;;;;;4.28;3.33;;;;;;;16.17;55.10;100342.78;8750152;33;20171;-76
2021/09/29 08:43:27;;;;;;;5.82;3.13;;;;;;;16.17;55.44;100331.94;8775236;33;20182;-74
2021/09/29 08:48:39;;;;;;;4.70;3.20;;;;;;;16.27;54.85;100330.00;8775555;33;20647;-75
2021/09/29 09:20:30;;;;;;;3.20;2.13;;;;;;;15.53;56.85;100313.31;8770991;33;20139;-76
2021/09/29 09:25:38;;;;;;;5.93;2.50;;;;;;;15.52;58.03;100327.81;8748864;33;20277;-76
2021/09/29 09:30:42;;;;;;;5.28;2.25;;;;;;;15.71;58.07;100321.34;8773837;33;20193;-76
2021/09/29 09:35:49;;;;;;;3.28;1.77;;;;;;;15.20;57.45;100309.47;8773137;33;20289;-75
2021/09/29 09:40:58;;;;;;;6.10;2.10;;;;;;;14.77;59.11;100317.34;8773649;33;20264;-76
2021/09/29 09:46:02;;;;;;;3.55;1.83;;;;;;;14.29;60.19;100325.69;8773092;33;20186;-75
2021/09/29 09:51:12;;;;;;;3.40;2.17;;;;;;;14.05;61.81;100321.69;8772956;33;20741;-74
2021/09/29 09:56:17;;;;;;;2.05;1.77;;;;;;;13.78;62.31;100311.72;8772110;33;20191;-75
2021/09/29 10:01:22;;;;;;;2.90;1.90;;;;;;;13.94;62.36;100306.53;8745800;33;20151;-75
2021/09/29 10:06:27;;;;;;;3.63;1.88;;;;;;;14.10;62.20;100300.50;8753095;33;20582;-74
2021/09/29 10:11:32;;;;;;;1.77;1.38;;;;;;;14.00;61.91;100288.88;8782254;33;20195;-75
2021/09/29 10:27:40;;;;;;;3.38;1.75;;;;;;;14.44;61.59;100277.44;8777873;33;20855;-75
2021/09/29 10:32:45;;;;;;;3.17;2.20;;;;;;;14.60;60.95;100283.88;8778297;33;20624;-75
2021/09/29 10:43:23;;;;;;;2.97;1.83;;;;;;;14.77;59.93;100271.38;8765647;33;20244;-76
2021/09/29 10:48:39;;;;;;;2.50;1.70;;;;;;;14.89;59.28;100263.03;8777670;33;20290;-75
2021/09/29 11:05:12;;;;;;;3.10;2.00;;;;;;;14.12;64.56;100262.53;8751972;33;20135;-75
2021/09/29 11:10:38;;;;;;;3.33;2.08;;;;;;;13.45;69.41;100283.38;8775472;33;20175;-75
2021/09/29 11:31:49;;;;;;;5.13;1.70;;;;;;;13.41;68.01;100280.16;8777061;33;22124;-74
2021/09/29 12:09:30;;;;;;;8.73;2.38;;;;;;;12.74;72.19;100249.50;8767463;33;20135;-76
2021/09/29 12:14:35;;;;;;;3.70;1.90;;;;;;;12.03;75.25;100240.72;8775109;33;20605;-75
2021/09/29 12:19:40;;;;;;;6.43;2.28;;;;;;;11.92;79.29;100247.91;8774567;33;20172;-75
2021/09/29 12:24:46;;;;;;;7.97;2.75;;;;;;;10.84;87.24;100269.75;8766591;33;20242;-74
2021/09/29 12:29:52;;;;;;;1.38;1.27;;;;;;;9.69;90.86;100292.50;8773210;33;20190;-74
2021/09/29 12:35:15;;;;;;;5.00;2.58;;;;;;;9.82;91.57;100294.22;8775248;33;21296;-75
2021/09/29 12:40:18;;;;;;;2.25;1.83;;;;;;;9.78;90.98;100322.28;8774774;33;20228;-75
2021/09/29 12:45:28;;;;;;;4.43;2.00;;;;;;;9.68;90.72;100311.41;8774587;33;20178;-74
2021/09/29 12:50:43;;;;;;;4.70;2.40;;;;;;;9.84;89.57;100309.22;8751853;33;20168;-74
2021/09/29 12:55:52;;;;;;;3.00;2.78;;;;;;;9.91;89.83;100312.31;8773710;33;20918;-75
2021/09/29 13:00:57;;;;;;;3.70;3.40;;;;;;;9.97;89.69;100313.66;8730210;33;20469;-74
2021/09/29 13:06:01;;;;;;;6.47;4.72;;;;;;;10.22;88.99;100312.53;8764418;33;20190;-73
2021/09/29 13:11:04;;;;;;;6.75;5.65;;;;;;;10.13;87.90;100336.47;8773559;33;20178;-75
2021/09/29 13:16:08;;;;;;;7.95;7.15;;;;;;;10.41;87.95;100334.22;8770710;33;20455;-74
2021/09/29 13:21:15;;;;;;;10.98;7.80;;;;;;;10.45;85.60;100367.06;8772890;33;20330;-74
2021/09/29 13:37:00;;;;;;;8.38;7.57;;;;;;;10.38;83.94;100367.56;8771542;33;20174;-74
2021/09/29 13:42:04;;;;;;;6.65;5.13;;;;;;;10.47;83.42;100390.13;8778233;33;20236;-72
2021/09/29 13:47:09;;;;;;;6.20;5.55;;;;;;;10.80;82.51;100401.78;8778601;33;20502;-73
2021/09/29 13:52:15;;;;;;;5.72;5.15;;;;;;;10.77;81.42;100413.66;8776310;33;20232;-73
2021/09/29 13:57:21;;;;;;;6.03;4.60;;;;;;;10.67;80.26;100390.34;8777880;33;20143;-73
2021/09/29 14:02:49;;;;;;;4.22;3.83;;;;;;;11.27;79.19;100387.16;8777603;33;20233;-73
2021/09/29 14:29:19;;;;;;;4.93;4.07;;;;;;;9.87;85.22;100418.16;8768296;33;20186;-73
2021/09/29 14:34:24;;;;;;;4.82;3.83;;;;;;;11.67;87.79;100410.66;8777875;33;20179;-74
2021/09/29 14:39:27;;;;;;;5.05;2.97;;;;;;;11.72;78.94;100426.44;8778573;33;20508;-74
2021/09/29 14:44:30;;;;;;;3.67;2.97;;;;;;;11.21;80.50;100437.88;8752240;33;20986;-75
2021/09/29 14:49:34;;;;;;;1.80;1.70;;;;;;;10.36;79.09;100468.00;8777327;33;20327;-74
2021/09/29 14:54:38;;;;;;;1.60;1.50;;;;;;;10.61;80.00;100480.34;8776867;33;20147;-74
2021/09/29 14:59:44;;;;;;;3.83;1.55;;;;;;;11.03;76.66;100475.19;8777314;33;20601;-74
2021/09/29 15:04:49;;;;;;;1.58;1.48;;;;;;;11.26;75.21;100478.69;8776964;33;20271;-74
2021/09/29 15:09:52;;;;;;;0.80;0.80;;;;;;;10.46;72.60;100508.44;8777967;33;21605;-74
2021/09/29 15:15:01;;;;;;;1.08;1.02;;;;;;;10.02;75.42;100507.38;8776581;33;21455;-74
2021/09/29 15:20:12;;;;;;;1.27;1.10;;;;;;;9.89;74.70;100526.22;8777740;32;20135;-74
2021/09/29 15:47:04;;;;;;;2.17;0.95;;;;;;;10.05;73.06;100521.41;8555498;33;20466;-73
2021/09/29 15:52:18;;;;;;;1.50;1.40;;;;;;;9.79;74.02;100527.84;8566974;33;20270;-74
2021/09/29 15:57:33;;;;;;;1.42;1.25;;;;;;;9.89;73.67;100540.50;8599949;33;20564;-74
2021/09/29 16:02:40;;;;;;;1.30;1.30;;;;;;;9.92;74.20;100547.47;8680629;33;20184;-74
2021/09/29 16:07:50;;;;;;;1.48;1.38;;;;;;;9.71;73.86;100556.13;8679432;33;20148;-74
2021/09/29 16:13:29;;;;;;;3.33;1.70;;;;;;;9.32;75.42;100567.09;8677109;33;20184;-73
2021/09/29 16:18:48;;;;;;;1.70;1.30;;;;;;;9.41;75.41;100567.31;8677783;33;20152;-74
2021/09/29 16:29:57;;;;;;;1.55;1.30;;;;;;;9.16;76.13;100584.31;8681884;33;20214;-74
2021/09/29 16:34:59;;;;;;;2.10;1.33;;;;;;;9.16;77.09;100599.50;8679928;33;20175;-74
2021/09/29 16:40:03;;;;;;;3.65;1.75;;;;;;;9.04;76.85;100588.72;8668131;33;20521;-74
2021/09/29 16:45:10;;;;;;;2.55;1.65;;;;;;;9.16;77.49;100597.72;8711600;33;20180;-73
2021/09/29 16:50:16;;;;;;;2.80;1.77;;;;;;;8.86;77.53;100606.13;8718759;33;20502;-74
2021/09/29 16:55:27;;;;;;;2.95;1.83;;;;;;;9.05;78.18;100643.16;8717987;33;21581;-74
2021/09/29 17:00:41;;;;;;;4.32;2.22;;;;;;;8.00;86.81;100657.44;8718774;33;20183;-73
2021/09/29 17:05:45;;;;;;;4.00;2.72;;;;;;;7.62;87.96;100684.84;8718806;33;20166;-73
2021/09/29 17:10:49;;;;;;;3.47;2.00;;;;;;;7.42;87.37;100683.44;8718686;33;20234;-79
2021/09/29 17:15:56;;;;;;;2.45;1.50;;;;;;;7.03;87.40;100686.78;8718266;33;20530;-74
2021/09/29 17:21:01;;;;;;;1.83;1.48;;;;;;;6.76;89.36;100700.81;8718204;33;20183;-74
2021/09/29 17:26:05;;;;;;;1.45;1.38;;;;;;;6.82;89.02;100705.78;8717778;33;20453;-74
2021/09/29 17:31:10;;;;;;;4.20;1.60;;;;;;;6.80;89.78;100701.50;8718070;33;20223;-74
2021/09/29 17:52:18;;;;;;;3.33;1.33;;;;;;;6.81;88.13;100727.25;8715991;33;20436;-72
2021/09/29 17:57:21;;;;;;;3.53;1.50;;;;;;;6.93;88.20;100749.72;8714503;33;20294;-73
2021/09/29 18:02:28;;;;;;;2.03;1.70;;;;;;;6.99;87.64;100741.34;8716764;33;20241;-72
2021/09/29 18:07:40;;;;;;;2.30;1.50;;;;;;;6.92;87.17;100754.22;8716867;33;20140;-73
2021/09/29 18:12:43;;;;;;;1.40;1.30;;;;;;;7.11;86.35;100745.09;8718245;33;20253;-73
2021/09/29 18:17:47;;;;;;;2.00;1.20;;;;;;;7.12;86.55;100749.47;8717776;33;20136;-72
2021/09/29 18:22:52;;;;;;;1.80;1.65;;;;;;;7.03;85.92;100753.56;8717042;33;20179;-72
2021/09/29 18:27:56;;;;;;;1.60;1.50;;;;;;;7.06;85.40;100774.75;8716390;33;20290;-73
2021/09/29 18:33:04;;;;;;;2.15;1.27;;;;;;;7.22;85.03;100770.19;8716627;33;20187;-72
2021/09/29 18:38:13;;;;;;;2.13;1.90;;;;;;;7.27;85.53;100776.13;8716475;33;20206;-72
2021/09/29 18:43:38;;;;;;;1.70;1.58;;;;;;;7.14;85.07;100775.16;8716350;33;20841;-72
2021/09/29 18:48:41;;;;;;;2.05;1.35;;;;;;;7.23;84.49;100782.59;8716619;33;20633;-72
2021/09/29 18:53:55;;;;;;;3.03;1.30;;;;;;;7.18;84.37;100789.16;8716339;33;20302;-72
2021/09/29 19:07:08;;;;;;;2.58;1.80;;;;;;;7.27;84.68;100789.50;8711464;33;20155;-73
2021/09/29 19:09:50;;;;;;;2.10;1.60;;;;;;;7.29;84.63;100792.06;8682155;33;20176;-74
2021/09/29 19:14:53;;;;;;;2.75;2.17;;;;;;;7.15;85.03;100798.22;8658851;33;21502;-73
2021/09/29 19:19:56;;;;;;;2.92;1.75;;;;;;;7.19;84.72;100802.47;8657878;33;20195;-73
2021/09/29 19:25:01;;;;;;;2.67;2.10;;;;;;;7.37;84.25;100802.28;8657998;33;20192;-73
2021/09/29 19:30:05;;;;;;;3.72;1.80;;;;;;;7.20;84.50;100808.66;8655965;33;20681;-72
2021/09/29 19:35:09;;;;;;;5.32;2.33;;;;;;;7.31;83.69;100811.53;8657812;33;20254;-72
2021/09/29 19:40:16;;;;;;;2.17;2.00;;;;;;;7.32;83.59;100815.06;8657244;33;21826;-73
2021/09/29 19:45:20;;;;;;;2.88;2.05;;;;;;;7.30;84.06;100808.97;8657548;33;20535;-73
2021/09/29 20:11:55;;;;;;;2.20;1.65;;;;;;;6.91;83.82;100832.63;8662557;33;20179;-73
2021/09/29 20:16:58;;;;;;;3.08;1.92;;;;;;;7.23;83.42;100836.03;8660095;33;20535;-73
2021/09/29 20:22:01;;;;;;;2.03;1.42;;;;;;;6.92;83.24;100845.03;8700404;33;20156;-73
2021/09/29 20:27:13;;;;;;;3.80;1.40;;;;;;;6.92;83.17;100852.19;8719274;33;20188;-73
2021/09/29 20:32:16;;;;;;;1.75;1.65;;;;;;;7.13;82.85;100847.38;8713331;33;20188;-73
2021/09/29 20:48:02;;;;;;;1.83;1.70;;;;;;;7.14;82.75;100859.78;8651905;33;20167;-74
2021/09/29 20:53:08;;;;;;;3.00;1.73;;;;;;;7.00;83.05;100876.63;8661079;33;20287;-74
2021/09/29 20:58:12;;;;;;;2.05;1.90;;;;;;;7.32;83.07;100863.16;8662105;33;20207;-74
2021/09/29 21:03:16;;;;;;;2.20;2.00;;;;;;;7.25;82.98;100862.69;8661198;33;21261;-74
2021/09/29 21:08:28;;;;;;;3.40;2.00;;;;;;;7.34;82.69;100874.63;8661732;33;20156;-75
2021/09/29 21:13:35;;;;;;;3.00;2.35;;;;;;;7.45;82.48;100861.47;8659270;33;20227;-75
2021/09/29 21:18:39;;;;;;;2.38;2.15;;;;;;;7.38;82.86;100861.00;8659198;33;20236;-75
2021/09/29 21:23:42;;;;;;;5.20;2.70;;;;;;;7.49;82.68;100874.56;8660194;33;20261;-75
2021/09/29 21:28:47;;;;;;;4.88;2.50;;;;;;;7.37;82.56;100887.81;8661018;33;20155;-75
2021/09/29 21:33:54;;;;;;;4.28;2.90;;;;;;;7.45;82.79;100893.56;8693034;33;20274;-76
2021/09/29 21:39:00;;;;;;;11.90;3.28;;;;;;;7.50;82.47;100897.66;8718821;33;20442;-74
2021/09/29 21:44:36;;;;;;;4.25;2.78;;;;;;;7.45;82.61;100906.91;8717961;33;20640;-74
2021/09/29 22:32:49;;;;;;;8.77;4.53;;;;;;;7.17;82.35;100939.75;8650994;33;20217;-74
2021/09/29 22:53:28;;;;;;;8.32;4.35;;;;;;;7.16;81.78;100948.72;8715548;33;20306;-75
2021/09/29 23:05:05;;;;;;;3.55;3.00;;;;;;;7.17;81.20;100967.34;8714943;33;20298;-74
2021/09/29 23:10:15;;;;;;;5.25;3.78;;;;;;;7.25;81.51;100970.44;8714850;33;20153;-75
2021/09/29 23:36:33;;;;;;;4.82;3.33;;;;;;;7.07;80.08;100998.19;8714278;33;20190;-75
2021/09/29 23:41:37;;;;;;;7.78;4.30;;;;;;;7.06;80.58;100991.13;8714507;33;20654;-74
2021/09/29 23:46:40;;;;;;;3.60;3.15;;;;;;;7.03;80.54;101018.03;8714006;33;20702;-75
2021/09/29 23:51:45;;;;;;;5.30;4.43;;;;;;;7.03;80.95;101010.88;8718608;33;20229;-74
2021/09/29 23:56:48;;;;;;;5.32;4.05;;;;;;;7.10;80.49;101022.06;8719121;33;20132;-75
